Time;durP1;ratioP1;P1;durP2;ratioP2;P2;SDS_P1;SDS_P2;PMS_P1;PMS_P2;Temp;Humidity;BMP_temperature;BMP_pressure;BME280_temperature;BME280_humidity;BME280_pressure;Samples;Min_cycle;Max_cycle;Signal;HPM_P1;HPM_P2
2022/11/11 00:00:06;;;;;;;10.82;4.07;;;11.10;99.90;;;;;;4942881;28;20110;-69
2022/11/11 00:02:54;;;;;;;8.85;3.58;;;11.10;99.90;;;;;;4944869;28;20511;-65
2022/11/11 00:05:39;;;;;;;9.73;4.00;;;11.10;99.90;;;;;;4944878;28;20149;-66
2022/11/11 00:08:25;;;;;;;15.70;5.35;;;11.10;99.90;;;;;;4939945;28;20126;-68
2022/11/11 00:11:13;;;;;;;12.70;4.53;;;11.10;99.90;;;;;;4944885;28;20170;-65
2022/11/11 00:13:58;;;;;;;11.82;4.80;;;11.10;99.90;;;;;;4942709;28;20055;-66
2022/11/11 00:25:56;;;;;;;17.17;5.20;;;11.10;99.90;;;;;;4945862;28;20062;-64
2022/11/11 00:29:02;;;;;;;10.27;6.28;;;11.10;99.90;;;;;;4944301;28;20046;-68
2022/11/11 00:38:06;;;;;;;10.07;4.82;;;11.10;99.90;;;;;;4938996;28;20106;-72
2022/11/11 00:40:52;;;;;;;15.60;5.65;;;11.00;99.90;;;;;;4946145;28;20849;-75
2022/11/11 00:43:38;;;;;;;14.48;5.28;;;11.00;99.90;;;;;;4942994;28;20074;-68
2022/11/11 00:52:36;;;;;;;13.02;5.32;;;11.10;99.90;;;;;;4940314;28;20062;-65
2022/11/11 00:55:22;;;;;;;11.98;5.22;;;11.10;99.90;;;;;;4943488;28;20760;-73
2022/11/11 00:58:07;;;;;;;10.95;4.78;;;11.10;99.90;;;;;;4939545;28;20051;-71
2022/11/11 01:00:53;;;;;;;10.75;4.82;;;11.10;99.90;;;;;;4941746;28;20050;-70
2022/11/11 01:03:39;;;;;;;13.07;4.90;;;11.20;99.90;;;;;;4937353;28;20639;-67
2022/11/11 01:06:25;;;;;;;10.82;5.28;;;11.20;99.90;;;;;;4944310;28;20174;-69
2022/11/11 01:09:10;;;;;;;12.35;4.80;;;11.30;99.90;;;;;;4944973;28;20082;-66
2022/11/11 01:11:56;;;;;;;11.10;4.70;;;11.20;99.90;;;;;;4944489;28;20066;-67
2022/11/11 01:14:41;;;;;;;12.35;5.20;;;11.30;99.90;;;;;;4948254;28;20054;-66
2022/11/11 01:17:28;;;;;;;12.93;4.13;;;11.30;99.90;;;;;;4946469;28;20106;-66
2022/11/11 01:20:14;;;;;;;7.32;4.07;;;11.30;99.90;;;;;;4944420;28;20059;-70
2022/11/11 01:23:00;;;;;;;9.10;4.32;;;11.30;99.90;;;;;;4945117;28;20046;-67
2022/11/11 01:25:46;;;;;;;10.10;4.05;;;11.40;99.90;;;;;;4945292;28;20058;-66
2022/11/11 01:28:32;;;;;;;6.95;4.28;;;11.40;99.90;;;;;;4948943;28;20046;-75
2022/11/11 01:31:20;;;;;;;10.07;4.32;;;11.50;99.90;;;;;;4943237;28;20282;-65
2022/11/11 01:34:05;;;;;;;8.55;4.22;;;11.50;99.90;;;;;;4962188;28;20780;-72
2022/11/11 01:36:51;;;;;;;24.23;6.63;;;11.50;99.90;;;;;;4946846;28;20042;-69
2022/11/11 01:39:36;;;;;;;17.40;4.32;;;11.60;99.90;;;;;;4948088;28;20488;-65
2022/11/11 01:42:22;;;;;;;8.80;4.55;;;11.60;99.90;;;;;;4939439;28;20050;-68
2022/11/11 01:45:43;;;;;;;11.93;4.35;;;11.60;99.90;;;;;;4945694;28;20129;-69
2022/11/11 01:51:57;;;;;;;7.95;3.70;;;11.50;99.90;;;;;;4947040;28;20058;-66
2022/11/11 01:54:55;;;;;;;20.88;4.93;;;11.60;99.90;;;;;;4961106;28;20069;-69
2022/11/11 01:57:50;;;;;;;8.55;4.35;;;11.60;99.90;;;;;;4963838;28;20461;-69
2022/11/11 02:00:36;;;;;;;11.77;5.60;;;11.50;99.90;;;;;;4964802;28;20046;-66
2022/11/11 02:03:23;;;;;;;7.35;3.70;;;11.50;99.90;;;;;;4967242;28;20087;-68
2022/11/11 02:06:10;;;;;;;12.82;3.92;;;11.50;99.90;;;;;;4959349;28;20435;-65
2022/11/11 02:08:56;;;;;;;10.07;3.75;;;11.50;99.90;;;;;;4960959;28;20049;-68
2022/11/11 02:14:50;;;;;;;12.40;3.85;;;11.60;99.90;;;;;;4963557;28;20097;-68
2022/11/11 02:17:35;;;;;;;11.48;3.40;;;11.60;99.90;;;;;;4965706;28;20196;-65
2022/11/11 02:20:24;;;;;;;10.18;3.42;;;11.60;99.90;;;;;;4961130;28;20045;-68
2022/11/11 02:23:23;;;;;;;7.70;2.72;;;11.60;99.90;;;;;;4965536;28;20086;-65
2022/11/11 02:26:15;;;;;;;10.30;3.67;;;11.60;99.90;;;;;;4963113;28;20062;-65
2022/11/11 02:29:02;;;;;;;;;;;11.60;99.90;;;;;;4960348;28;20136;-71
2022/11/11 02:31:47;;;;;;;10.63;3.72;;;11.60;99.90;;;;;;4965529;28;19945;-70
2022/11/11 02:34:34;;;;;;;10.05;3.30;;;11.60;99.90;;;;;;4962783;28;20150;-67
2022/11/11 02:37:23;;;;;;;7.35;3.65;;;11.70;99.90;;;;;;4965898;28;20053;-66
2022/11/11 02:40:12;;;;;;;9.98;3.17;;;11.70;99.90;;;;;;4961371;28;20590;-70
2022/11/11 02:42:58;;;;;;;11.95;2.67;;;11.70;99.90;;;;;;4963809;28;20137;-65
2022/11/11 02:45:43;;;;;;;6.47;2.95;;;11.70;99.90;;;;;;4959676;28;20129;-65
2022/11/11 02:48:30;;;;;;;6.65;2.30;;;11.70;99.90;;;;;;4978856;28;20049;-68
2022/11/11 02:51:16;;;;;;;11.43;2.90;;;11.70;99.90;;;;;;4962648;28;20190;-65
2022/11/11 02:54:01;;;;;;;14.00;2.65;;;11.70;99.90;;;;;;4961705;28;20075;-68
2022/11/11 02:59:51;;;;;;;4.57;2.33;;;11.80;99.90;;;;;;4964760;28;20053;-72
2022/11/11 03:02:36;;;;;;;8.77;3.17;;;11.70;99.90;;;;;;4962463;28;20046;-66
2022/11/11 03:05:23;;;;;;;17.17;3.75;;;11.70;99.90;;;;;;4963688;28;20055;-73
2022/11/11 03:08:08;;;;;;;10.73;2.72;;;11.80;99.90;;;;;;4958197;28;20050;-67
2022/11/11 03:10:54;;;;;;;4.65;2.30;;;11.80;99.90;;;;;;4961617;28;20385;-68
2022/11/11 03:13:40;;;;;;;5.22;2.40;;;11.80;99.90;;;;;;4961511;28;20452;-67
2022/11/11 03:19:32;;;;;;;12.88;4.13;;;11.80;99.90;;;;;;4947308;28;20042;-68
2022/11/11 03:22:17;;;;;;;19.02;3.47;;;11.80;99.90;;;;;;4961689;28;20142;-64
2022/11/11 03:25:38;;;;;;;7.07;3.22;;;11.80;99.90;;;;;;4963609;28;20049;-70
2022/11/11 03:28:26;;;;;;;6.20;2.85;;;11.70;99.90;;;;;;4962589;28;21314;-69
2022/11/11 03:31:12;;;;;;;7.97;2.83;;;11.70;99.90;;;;;;4961365;28;20054;-65
2022/11/11 03:34:17;;;;;;;5.47;2.78;;;11.80;99.90;;;;;;4966362;28;20127;-69
2022/11/11 03:40:13;;;;;;;9.48;3.00;;;11.80;99.90;;;;;;4963882;28;20069;-65
2022/11/11 03:42:58;;;;;;;4.40;2.67;;;11.80;99.90;;;;;;4962390;28;20066;-68
2022/11/11 03:45:53;;;;;;;15.10;3.88;;;11.80;99.90;;;;;;4960963;28;20097;-65
2022/11/11 03:48:39;;;;;;;9.80;3.13;;;11.90;99.90;;;;;;4953597;28;20110;-67
2022/11/11 03:51:24;;;;;;;7.45;2.58;;;11.90;99.90;;;;;;4958553;28;20733;-65
2022/11/11 03:54:10;;;;;;;6.28;2.85;;;11.90;99.90;;;;;;4959129;28;20053;-64
2022/11/11 03:57:29;;;;;;;4.13;2.30;;;11.90;99.90;;;;;;4957469;28;20151;-74
2022/11/11 04:00:00;;;;;;;5.43;2.72;;;12.00;99.90;;;;;;4964562;28;20050;-68
2022/11/11 04:12:00;;;;;;;8.20;2.97;;;12.00;99.90;;;;;;4961574;28;20061;-70
2022/11/11 04:17:50;;;;;;;6.55;2.78;;;12.00;99.90;;;;;;4964569;28;20480;-72
2022/11/11 04:23:39;;;;;;;7.68;3.70;;;12.00;99.90;;;;;;4965008;28;20057;-65
2022/11/11 04:26:25;;;;;;;11.05;2.95;;;12.00;99.90;;;;;;4962471;28;20050;-69
2022/11/11 04:29:28;;;;;;;8.73;3.30;;;12.00;99.90;;;;;;4960792;28;20054;-65
2022/11/11 04:32:39;;;;;;;5.68;4.60;;;11.90;99.90;;;;;;4959251;28;20665;-67
2022/11/11 04:35:25;;;;;;;;;;;11.90;99.90;;;;;;4963555;28;20050;-69
2022/11/11 04:41:15;;;;;;;8.20;3.42;;;11.80;99.90;;;;;;4962967;28;20568;-70
2022/11/11 04:47:04;;;;;;;6.35;2.58;;;11.80;99.90;;;;;;4962148;28;20603;-68
2022/11/11 04:49:50;;;;;;;11.23;3.10;;;11.90;99.90;;;;;;4963870;28;20050;-66
2022/11/11 04:52:35;;;;;;;8.63;3.25;;;11.90;99.90;;;;;;4959842;28;20082;-73
2022/11/11 04:58:27;;;;;;;9.50;4.30;;;11.90;99.90;;;;;;4963933;28;20054;-69
2022/11/11 05:03:14;;;;;;;7.40;3.45;;;11.90;99.90;;;;;;4959988;28;20117;-66
2022/11/11 05:04:21;;;;;;;3.63;2.65;;;11.90;99.90;;;;;;4961780;28;20156;-66
2022/11/11 05:10:10;;;;;;;8.82;3.00;;;12.00;99.90;;;;;;4962556;28;20066;-64
2022/11/11 05:21:19;;;;;;;11.45;3.35;;;12.00;99.90;;;;;;4969168;28;20058;-66
2022/11/11 05:22:30;;;;;;;8.85;2.17;;;12.00;99.90;;;;;;4964165;28;20136;-64
2022/11/11 05:25:24;;;;;;;7.57;3.70;;;12.00;99.90;;;;;;4960782;28;20193;-65
2022/11/11 05:28:10;;;;;;;8.93;4.25;;;12.00;99.90;;;;;;4961632;28;20673;-72
2022/11/11 05:30:55;;;;;;;8.88;2.92;;;12.00;99.90;;;;;;4963305;28;20322;-70
2022/11/11 05:33:41;;;;;;;12.65;3.05;;;12.00;99.90;;;;;;4962429;28;20070;-69
2022/11/11 05:36:26;;;;;;;8.55;2.83;;;12.00;99.90;;;;;;4960883;28;20365;-68
2022/11/11 05:39:12;;;;;;;11.73;2.85;;;12.00;99.90;;;;;;4966673;28;20493;-66
2022/11/11 05:41:57;;;;;;;10.75;2.40;;;12.10;99.90;;;;;;4961542;28;20058;-68
2022/11/11 05:44:43;;;;;;;5.63;3.10;;;12.10;99.90;;;;;;4960947;28;20050;-68
2022/11/11 05:47:28;;;;;;;6.50;2.90;;;12.10;99.90;;;;;;4961689;28;20329;-67
2022/11/11 05:50:15;;;;;;;8.50;2.92;;;12.10;99.90;;;;;;4960562;28;20102;-66
2022/11/11 05:53:00;;;;;;;10.70;2.17;;;12.10;99.90;;;;;;4962951;28;20090;-64
2022/11/11 05:55:45;;;;;;;8.13;3.28;;;12.10;99.90;;;;;;4961986;28;20053;-67
2022/11/11 05:58:31;;;;;;;7.97;3.22;;;12.10;99.90;;;;;;4960029;28;20385;-66
2022/11/11 06:01:16;;;;;;;6.90;2.80;;;12.10;99.90;;;;;;4961423;28;20050;-72
2022/11/11 06:04:04;;;;;;;11.20;2.60;;;12.10;99.90;;;;;;4957593;28;20066;-66
2022/11/11 06:06:49;;;;;;;11.95;3.45;;;12.10;99.90;;;;;;4962915;28;20388;-67
2022/11/11 06:09:35;;;;;;;7.07;3.13;;;12.10;99.90;;;;;;4961631;28;20054;-67
2022/11/11 06:12:21;;;;;;;12.57;2.95;;;12.20;99.90;;;;;;4961968;28;20206;-66
2022/11/11 06:15:07;;;;;;;8.13;2.30;;;12.10;99.90;;;;;;4963986;28;20062;-67
2022/11/11 06:17:52;;;;;;;8.85;4.07;;;12.10;99.90;;;;;;4960484;28;20491;-65
2022/11/11 06:20:38;;;;;;;7.22;2.38;;;12.10;99.90;;;;;;4963753;28;20105;-65
2022/11/11 06:23:25;;;;;;;8.20;2.55;;;12.20;99.90;;;;;;4965798;28;20054;-70
2022/11/11 06:26:12;;;;;;;10.02;3.15;;;12.20;99.90;;;;;;4961987;28;20491;-70
2022/11/11 06:28:57;;;;;;;6.85;2.35;;;12.20;99.90;;;;;;4964793;28;21008;-69
2022/11/11 06:31:44;;;;;;;4.68;2.28;;;12.10;99.90;;;;;;4964828;28;20601;-68
2022/11/11 06:34:30;;;;;;;8.25;4.03;;;12.10;99.90;;;;;;4965169;28;20053;-72
2022/11/11 06:37:15;;;;;;;11.05;2.60;;;12.10;99.90;;;;;;4965138;28;20058;-67
2022/11/11 06:40:01;;;;;;;11.63;3.78;;;12.20;99.90;;;;;;4961481;28;20058;-69
2022/11/11 06:42:46;;;;;;;7.78;2.65;;;12.10;99.90;;;;;;4960387;28;20153;-72
2022/11/11 06:45:34;;;;;;;10.70;2.58;;;12.20;99.90;;;;;;4958500;28;20057;-68
2022/11/11 06:48:20;;;;;;;6.00;2.03;;;12.20;99.90;;;;;;4960503;28;20193;-68
2022/11/11 06:51:06;;;;;;;5.82;2.30;;;12.20;99.90;;;;;;4963240;28;20093;-67
2022/11/11 06:53:51;;;;;;;11.50;3.65;;;12.20;99.90;;;;;;4965333;28;20162;-69
2022/11/11 06:56:37;;;;;;;11.23;2.72;;;12.20;99.90;;;;;;4964835;28;20388;-70
2022/11/11 06:59:22;;;;;;;12.52;4.13;;;12.20;99.90;;;;;;4962068;28;20125;-68
2022/11/11 07:02:12;;;;;;;5.88;3.13;;;12.20;99.90;;;;;;4961314;28;20658;-70
2022/11/11 07:04:59;;;;;;;4.60;2.10;;;12.30;99.90;;;;;;4962160;28;20194;-68
2022/11/11 07:07:44;;;;;;;5.95;1.92;;;12.20;99.90;;;;;;4961761;28;20392;-67
2022/11/11 07:10:33;;;;;;;7.90;2.25;;;12.20;99.90;;;;;;4962356;28;20154;-68
2022/11/11 07:13:18;;;;;;;11.70;3.58;;;12.30;99.90;;;;;;4963790;28;20124;-68
2022/11/11 07:16:04;;;;;;;4.53;2.55;;;12.30;99.90;;;;;;4961416;28;20062;-67
2022/11/11 07:18:49;;;;;;;4.82;2.58;;;12.30;99.90;;;;;;4962538;28;20069;-74
2022/11/11 07:21:35;;;;;;;4.47;2.17;;;12.30;99.90;;;;;;4965513;28;20189;-69
2022/11/11 07:24:20;;;;;;;10.43;2.80;;;12.40;99.90;;;;;;4961119;28;20864;-66
2022/11/11 07:27:06;;;;;;;8.10;2.50;;;12.30;99.90;;;;;;4967140;28;20062;-71
2022/11/11 07:29:52;;;;;;;11.40;3.58;;;12.40;99.90;;;;;;4966281;28;20054;-66
2022/11/11 07:32:44;;;;;;;9.90;2.28;;;12.40;99.90;;;;;;4960287;28;20158;-66
2022/11/11 07:35:30;;;;;;;11.10;4.38;;;12.40;99.90;;;;;;4966760;28;20142;-67
2022/11/11 07:38:15;;;;;;;13.63;2.90;;;12.40;99.90;;;;;;4961501;28;20049;-67
2022/11/11 07:41:01;;;;;;;10.40;3.03;;;12.30;99.90;;;;;;4960222;28;20058;-67
2022/11/11 07:43:47;;;;;;;9.32;2.28;;;12.40;99.90;;;;;;4981076;28;20049;-69
2022/11/11 07:46:32;;;;;;;11.85;3.50;;;12.30;99.90;;;;;;4959932;28;20090;-66
2022/11/11 07:49:17;;;;;;;3.42;2.55;;;12.30;99.90;;;;;;4965851;28;20079;-68
2022/11/11 07:52:03;;;;;;;8.80;3.45;;;12.40;99.90;;;;;;4962190;28;20070;-70
2022/11/11 07:54:49;;;;;;;12.10;4.15;;;12.40;99.90;;;;;;4963362;28;20178;-66
2022/11/11 07:57:35;;;;;;;5.85;2.20;;;12.40;99.90;;;;;;4961518;28;20110;-72
2022/11/11 08:00:22;;;;;;;8.65;3.05;;;12.40;99.90;;;;;;4960895;28;20086;-66
2022/11/11 08:03:07;;;;;;;7.88;2.22;;;12.40;99.90;;;;;;4962676;28;20519;-69
2022/11/11 08:05:54;;;;;;;6.32;3.05;;;12.40;99.90;;;;;;4964577;28;20408;-67
2022/11/11 08:08:40;;;;;;;8.63;4.18;;;12.40;99.90;;;;;;4961478;28;20479;-68
2022/11/11 08:14:29;;;;;;;5.13;2.95;;;12.50;99.90;;;;;;4960644;28;21430;-68
2022/11/11 08:17:15;;;;;;;8.15;3.00;;;12.40;99.90;;;;;;4957629;28;20050;-67
2022/11/11 08:20:00;;;;;;;9.05;2.90;;;12.50;99.90;;;;;;4964124;28;20054;-68
2022/11/11 08:22:46;;;;;;;14.13;3.92;;;12.40;99.90;;;;;;4962697;28;20137;-73
2022/11/11 08:25:51;;;;;;;11.25;2.65;;;12.40;99.90;;;;;;4963412;28;20061;-72
2022/11/11 08:28:37;;;;;;;5.03;2.60;;;12.40;99.90;;;;;;4949682;28;20050;-65
2022/11/11 08:31:23;;;;;;;6.85;2.42;;;12.50;99.90;;;;;;4962196;28;20057;-69
2022/11/11 08:34:09;;;;;;;7.20;2.33;;;12.50;99.90;;;;;;4959079;28;20061;-71
2022/11/11 08:36:54;;;;;;;12.20;3.67;;;12.50;99.90;;;;;;4956652;28;20054;-65
2022/11/11 08:39:39;;;;;;;10.95;3.22;;;12.50;99.90;;;;;;4962227;28;20073;-66
2022/11/11 08:42:26;;;;;;;6.35;2.45;;;12.60;99.90;;;;;;4961442;28;21562;-65
2022/11/11 08:45:12;;;;;;;6.10;2.25;;;12.60;99.90;;;;;;4959964;28;20655;-65
2022/11/11 08:47:57;;;;;;;9.98;3.08;;;12.60;99.90;;;;;;4964740;28;20155;-67
2022/11/11 08:50:43;;;;;;;8.55;3.35;;;12.60;99.90;;;;;;4961360;28;20519;-66
2022/11/11 08:53:28;;;;;;;7.40;3.10;;;12.60;99.90;;;;;;4960429;28;20128;-67
2022/11/11 08:56:14;;;;;;;8.45;2.75;;;12.60;99.90;;;;;;4957964;28;20125;-67
2022/11/11 08:58:59;;;;;;;9.35;3.42;;;12.60;99.90;;;;;;4962518;28;20066;-67
2022/11/11 09:01:44;;;;;;;11.05;3.90;;;12.60;99.90;;;;;;4949217;28;20105;-72
2022/11/11 09:04:30;;;;;;;13.30;3.65;;;12.60;99.90;;;;;;4961207;28;20054;-69
2022/11/11 09:07:30;;;;;;;12.82;4.28;;;12.60;99.90;;;;;;4965580;28;20053;-71
2022/11/11 09:10:16;;;;;;;5.78;2.95;;;12.60;99.90;;;;;;4958906;28;20480;-69
2022/11/11 09:13:02;;;;;;;8.77;3.55;;;12.60;99.90;;;;;;4960701;28;20057;-68
2022/11/11 09:15:47;;;;;;;12.63;4.13;;;12.60;99.90;;;;;;4960146;28;20053;-67
2022/11/11 09:18:34;;;;;;;8.85;3.33;;;12.60;99.90;;;;;;4962113;28;20468;-68
2022/11/11 09:21:19;;;;;;;6.63;3.42;;;12.60;99.90;;;;;;4959009;28;20210;-66
2022/11/11 09:24:05;;;;;;;15.55;3.83;;;12.60;99.90;;;;;;4959962;28;20181;-66
2022/11/11 09:26:51;;;;;;;7.97;3.13;;;12.60;99.90;;;;;;4966578;28;20102;-72
2022/11/11 09:29:36;;;;;;;8.68;3.53;;;12.70;99.90;;;;;;4963459;28;20057;-67
2022/11/11 09:32:22;;;;;;;7.72;3.03;;;12.70;99.90;;;;;;4960257;28;20126;-66
2022/11/11 09:35:07;;;;;;;9.02;2.97;;;12.70;99.90;;;;;;4962497;28;20065;-69
2022/11/11 09:37:55;;;;;;;11.35;3.33;;;12.70;99.90;;;;;;4967888;28;20065;-70
2022/11/11 09:41:06;;;;;;;10.95;2.83;;;12.70;99.90;;;;;;4960987;28;20053;-72
2022/11/11 09:44:02;;;;;;;11.02;5.07;;;12.70;99.90;;;;;;4967645;28;20384;-68
2022/11/11 09:47:02;;;;;;;12.13;3.08;;;12.80;99.90;;;;;;4963330;28;20047;-72
2022/11/11 09:50:10;;;;;;;7.88;2.42;;;12.80;99.90;;;;;;4963371;28;20045;-66
2022/11/11 09:53:24;;;;;;;12.63;3.47;;;12.80;99.90;;;;;;4959998;28;20547;-67
2022/11/11 09:56:21;;;;;;;8.18;2.50;;;12.90;99.90;;;;;;4963900;28;20049;-72
2022/11/11 09:59:45;;;;;;;10.65;3.05;;;12.80;99.90;;;;;;4963278;28;20209;-66
2022/11/11 10:02:58;;;;;;;12.73;3.17;;;12.80;99.90;;;;;;4965733;28;20580;-73
2022/11/11 10:06:05;;;;;;;7.90;3.30;;;12.90;99.90;;;;;;4963394;28;20046;-71
2022/11/11 10:09:01;;;;;;;8.80;4.25;;;12.90;99.90;;;;;;4960796;28;20133;-70
2022/11/11 10:12:11;;;;;;;8.75;4.63;;;12.90;99.90;;;;;;4962275;28;20495;-73
2022/11/11 10:15:00;;;;;;;7.72;3.03;;;12.90;99.90;;;;;;4957020;28;20050;-66
2022/11/11 10:18:22;;;;;;;12.32;3.55;;;13.00;99.90;;;;;;4967600;28;20042;-66
2022/11/11 10:21:14;;;;;;;5.13;3.28;;;13.00;99.90;;;;;;4965495;28;20109;-67
2022/11/11 10:24:04;;;;;;;13.18;3.13;;;13.10;99.90;;;;;;4961348;28;20050;-70
2022/11/11 10:26:50;;;;;;;16.38;2.75;;;13.20;99.90;;;;;;4964065;28;20049;-73
2022/11/11 10:29:43;;;;;;;10.85;3.80;;;13.30;99.90;;;;;;4961070;28;20068;-69
2022/11/11 10:32:33;;;;;;;13.32;3.47;;;13.30;99.90;;;;;;4964876;28;20054;-68
2022/11/11 10:35:24;;;;;;;13.20;4.17;;;13.30;99.90;;;;;;4963169;28;20845;-67
2022/11/11 10:38:10;;;;;;;11.73;4.35;;;13.30;99.90;;;;;;4963326;28;20501;-65
2022/11/11 10:41:14;;;;;;;12.88;4.35;;;13.30;99.90;;;;;;4961942;28;20069;-65
2022/11/11 10:44:00;;;;;;;10.05;3.03;;;13.30;99.90;;;;;;4962737;28;20543;-66
2022/11/11 10:46:58;;;;;;;9.27;3.13;;;13.40;99.90;;;;;;4962391;28;20792;-69
2022/11/11 10:50:01;;;;;;;6.85;2.40;;;13.50;99.90;;;;;;4966492;28;20121;-68
2022/11/11 10:53:07;;;;;;;4.45;1.85;;;13.60;99.90;;;;;;4946003;28;20425;-65
2022/11/11 10:56:14;;;;;;;7.63;2.72;;;13.60;99.90;;;;;;4945891;28;20512;-71
2022/11/11 10:59:13;;;;;;;6.65;1.95;;;13.70;99.90;;;;;;4940944;28;20505;-69
2022/11/11 11:02:03;;;;;;;3.17;2.00;;;13.70;99.90;;;;;;4958546;28;20054;-67
2022/11/11 11:05:02;;;;;;;4.60;2.50;;;13.80;99.90;;;;;;4963011;28;20049;-75
2022/11/11 11:07:52;;;;;;;7.53;1.92;;;13.90;99.90;;;;;;4962585;28;20499;-66
2022/11/11 11:10:46;;;;;;;14.50;4.07;;;13.90;99.90;;;;;;4964465;28;20050;-66
2022/11/11 11:13:42;;;;;;;6.38;1.90;;;14.00;99.90;;;;;;4964083;28;20080;-68
2022/11/11 11:16:34;;;;;;;4.93;1.52;;;14.10;99.90;;;;;;4963149;28;20105;-67
2022/11/11 11:19:25;;;;;;;6.00;2.30;;;14.10;99.90;;;;;;4964354;28;20191;-67
2022/11/11 11:22:11;;;;;;;8.20;1.60;;;14.20;99.90;;;;;;4963209;28;20078;-66
2022/11/11 11:25:12;;;;;;;4.50;1.35;;;14.20;99.90;;;;;;4962742;28;20790;-69
2022/11/11 11:28:06;;;;;;;5.90;2.75;;;14.20;99.90;;;;;;4963709;28;20061;-68
2022/11/11 11:31:07;;;;;;;6.40;1.85;;;14.20;99.90;;;;;;4937927;28;20199;-66
2022/11/11 11:33:54;;;;;;;6.82;1.95;;;14.20;99.90;;;;;;4942478;28;20098;-66
2022/11/11 11:36:40;;;;;;;6.25;2.20;;;14.20;99.90;;;;;;4939511;28;20069;-73
2022/11/11 11:39:37;;;;;;;8.48;2.05;;;14.20;99.90;;;;;;4942546;28;20063;-69
2022/11/11 11:42:31;;;;;;;4.65;1.83;;;14.20;99.90;;;;;;4937521;28;20086;-65
2022/11/11 11:45:23;;;;;;;4.53;2.17;;;14.20;99.90;;;;;;4939225;28;20043;-67
2022/11/11 11:48:28;;;;;;;7.30;2.25;;;14.10;99.90;;;;;;4939697;28;20692;-69
2022/11/11 11:51:27;;;;;;;7.70;2.22;;;14.10;99.90;;;;;;4941047;28;20228;-69
2022/11/11 11:54:42;;;;;;;5.07;2.58;;;14.10;99.90;;;;;;4939139;28;20066;-68
2022/11/11 11:57:40;;;;;;;8.93;2.95;;;14.10;99.90;;;;;;4945132;28;20045;-66
2022/11/11 12:00:30;;;;;;;3.20;1.90;;;14.10;99.90;;;;;;4936741;28;20461;-75
2022/11/11 12:03:30;;;;;;;3.70;1.92;;;14.10;99.90;;;;;;4941066;28;20182;-69
2022/11/11 12:06:18;;;;;;;4.18;2.70;;;14.10;99.90;;;;;;4942926;28;20090;-66
2022/11/11 12:09:10;;;;;;;5.13;1.77;;;14.20;99.90;;;;;;4940751;28;20499;-68
2022/11/11 12:12:04;;;;;;;7.68;3.17;;;14.20;99.90;;;;;;4943877;28;20172;-69
2022/11/11 12:15:20;;;;;;;4.32;1.63;;;14.20;99.90;;;;;;4940025;28;20057;-69
2022/11/11 12:18:47;;;;;;;5.10;1.52;;;14.10;99.90;;;;;;4945159;28;20075;-68
2022/11/11 12:21:59;;;;;;;7.78;2.00;;;14.10;99.90;;;;;;4939907;28;20054;-67
2022/11/11 12:24:52;;;;;;;5.35;2.00;;;14.10;99.90;;;;;;4937555;28;20050;-67
2022/11/11 12:27:45;;;;;;;7.30;1.75;;;14.10;99.90;;;;;;4947994;28;20053;-66
2022/11/11 12:30:33;;;;;;;4.55;1.30;;;14.10;99.90;;;;;;4937313;28;20061;-65
2022/11/11 12:33:36;;;;;;;2.50;1.90;;;14.10;99.90;;;;;;4945324;28;20050;-66
2022/11/11 12:36:34;;;;;;;6.53;2.75;;;14.10;99.90;;;;;;4938798;28;20191;-67
2022/11/11 12:39:22;;;;;;;5.18;1.55;;;14.10;99.90;;;;;;4941704;28;20066;-67
2022/11/11 12:42:25;;;;;;;5.63;2.28;;;14.10;99.90;;;;;;4935744;28;20099;-71
2022/11/11 12:45:40;;;;;;;4.28;2.55;;;14.20;99.90;;;;;;4936911;28;20124;-70
2022/11/11 12:48:50;;;;;;;8.18;2.58;;;14.20;99.90;;;;;;4939046;28;20197;-65
2022/11/11 12:51:44;;;;;;;6.55;2.75;;;14.20;99.90;;;;;;4941503;28;20606;-66
2022/11/11 12:54:38;;;;;;;5.07;2.40;;;14.20;99.90;;;;;;4944326;28;20755;-66
2022/11/11 12:57:54;;;;;;;6.30;2.05;;;14.20;99.90;;;;;;4941843;28;20054;-68
2022/11/11 13:01:03;;;;;;;6.32;2.05;;;14.20;99.90;;;;;;4941856;28;20062;-69
2022/11/11 13:04:22;;;;;;;3.90;2.28;;;14.20;99.90;;;;;;4947019;28;20579;-66
2022/11/11 13:07:28;;;;;;;10.02;2.47;;;14.20;99.90;;;;;;4946065;28;20377;-68
2022/11/11 13:10:27;;;;;;;;;;;14.20;99.90;;;;;;4947328;28;20186;-68
2022/11/11 13:13:34;;;;;;;8.35;2.25;;;14.10;99.90;;;;;;4947331;28;20248;-68
2022/11/11 13:16:23;;;;;;;10.75;2.25;;;14.20;99.90;;;;;;4944993;28;20050;-65
2022/11/11 13:19:27;;;;;;;9.63;2.42;;;14.10;99.90;;;;;;4950190;28;20143;-66
2022/11/11 13:22:27;;;;;;;8.77;2.88;;;14.10;99.90;;;;;;4944573;28;20066;-70
2022/11/11 13:25:27;;;;;;;13.30;2.97;;;14.10;99.90;;;;;;4955127;28;20164;-70
2022/11/11 13:28:38;;;;;;;5.63;2.05;;;14.10;99.90;;;;;;4964222;28;20147;-67
2022/11/11 13:31:39;;;;;;;5.50;2.63;;;14.10;99.90;;;;;;4965935;28;20062;-65
2022/11/11 13:34:25;;;;;;;12.63;3.22;;;14.10;99.90;;;;;;4966276;28;20061;-71
2022/11/11 13:37:28;;;;;;;6.03;2.47;;;14.10;99.90;;;;;;4968589;28;20046;-74
2022/11/11 13:40:35;;;;;;;4.70;2.38;;;14.00;99.90;;;;;;4965043;28;20504;-66
2022/11/11 13:43:48;;;;;;;8.93;3.20;;;14.00;99.90;;;;;;4966686;28;20521;-68
2022/11/11 13:46:40;;;;;;;3.00;2.10;;;14.00;99.90;;;;;;4963607;28;20065;-72
2022/11/11 13:49:45;;;;;;;6.47;3.17;;;14.00;99.90;;;;;;4967463;28;20090;-65
2022/11/11 13:52:35;;;;;;;6.75;2.60;;;13.90;99.90;;;;;;4965459;28;20105;-66
2022/11/11 13:55:30;;;;;;;5.53;1.97;;;13.90;99.90;;;;;;4966328;28;20049;-66
2022/11/11 13:58:32;;;;;;;10.45;2.38;;;14.00;99.90;;;;;;4966046;28;20049;-74
2022/11/11 14:01:18;;;;;;;5.18;2.22;;;14.00;99.90;;;;;;4962166;28;20109;-73
2022/11/11 14:04:06;;;;;;;11.52;3.03;;;13.90;99.90;;;;;;4964056;28;20057;-67
2022/11/11 14:06:53;;;;;;;9.23;3.05;;;13.90;99.90;;;;;;4947560;28;20161;-68
2022/11/11 14:10:01;;;;;;;11.43;2.75;;;13.80;99.90;;;;;;4945589;28;20497;-68
2022/11/11 14:12:54;;;;;;;4.78;1.73;;;13.80;99.90;;;;;;4956367;28;20062;-77
2022/11/11 14:15:49;;;;;;;9.63;2.25;;;13.80;99.90;;;;;;4946449;28;20050;-66
2022/11/11 14:18:42;;;;;;;6.30;2.90;;;13.80;99.90;;;;;;4943754;28;20050;-66
2022/11/11 14:21:49;;;;;;;10.48;2.47;;;13.70;99.90;;;;;;4956419;28;20066;-75
2022/11/11 14:24:46;;;;;;;4.57;1.90;;;13.70;99.90;;;;;;4942832;28;20050;-66
2022/11/11 14:27:33;;;;;;;7.55;2.58;;;13.60;99.90;;;;;;4946133;28;20054;-71
2022/11/11 14:30:36;;;;;;;8.75;2.45;;;13.60;99.90;;;;;;4943841;28;20121;-69
2022/11/11 14:33:24;;;;;;;12.65;3.17;;;13.50;99.90;;;;;;4942492;28;20194;-69
2022/11/11 14:36:28;;;;;;;11.77;3.67;;;13.50;99.90;;;;;;4944991;28;20058;-67
2022/11/11 14:39:31;;;;;;;10.30;2.67;;;13.40;99.90;;;;;;4946243;28;20106;-67
2022/11/11 14:42:34;;;;;;;10.73;3.20;;;13.40;99.90;;;;;;4944992;28;20047;-69
2022/11/11 14:45:43;;;;;;;7.95;2.22;;;13.40;99.90;;;;;;4947848;28;20057;-66
2022/11/11 14:48:48;;;;;;;15.63;3.33;;;13.40;99.90;;;;;;4945219;28;20050;-67
2022/11/11 14:51:49;;;;;;;9.13;2.75;;;13.40;99.90;;;;;;4946500;28;20054;-67
2022/11/11 14:54:40;;;;;;;7.30;1.98;;;13.40;99.90;;;;;;4951491;28;20440;-70
2022/11/11 14:57:37;;;;;;;10.25;2.97;;;13.50;99.90;;;;;;4966945;28;20057;-68
2022/11/11 15:00:28;;;;;;;9.60;2.03;;;13.50;99.90;;;;;;4955532;28;20117;-66
2022/11/11 15:03:26;;;;;;;8.35;2.45;;;13.50;99.90;;;;;;4964836;28;20530;-74
2022/11/11 15:06:17;;;;;;;4.70;2.08;;;13.60;99.90;;;;;;4962530;28;20062;-66
2022/11/11 15:09:33;;;;;;;5.97;2.47;;;13.50;99.90;;;;;;4966324;28;20555;-68
2022/11/11 15:12:46;;;;;;;6.13;2.40;;;13.60;99.90;;;;;;4964300;28;20049;-67
2022/11/11 15:16:05;;;;;;;11.05;1.95;;;13.60;99.90;;;;;;4966856;28;20049;-71
2022/11/11 15:19:08;;;;;;;7.35;1.75;;;13.60;99.90;;;;;;4965646;28;20045;-66
2022/11/11 15:22:40;;;;;;;3.35;1.60;;;13.60;99.90;;;;;;4964023;28;20061;-67
2022/11/11 15:26:08;;;;;;;7.63;2.53;;;13.70;99.90;;;;;;4954864;28;20069;-72
2022/11/11 15:29:19;;;;;;;6.03;2.72;;;13.70;99.90;;;;;;4958780;28;20337;-70
2022/11/11 15:32:30;;;;;;;6.97;2.00;;;13.70;99.90;;;;;;4964319;28;20401;-68
2022/11/11 15:35:25;;;;;;;9.02;2.55;;;13.80;99.90;;;;;;4965352;28;20054;-66
2022/11/11 15:38:14;;;;;;;6.28;1.92;;;13.80;99.90;;;;;;4962749;28;20054;-70
2022/11/11 15:41:00;;;;;;;8.27;2.50;;;13.80;99.90;;;;;;4959069;28;20054;-66
2022/11/11 15:43:46;;;;;;;7.40;2.75;;;13.80;99.90;;;;;;4966930;28;20614;-66
2022/11/11 15:46:37;;;;;;;7.10;1.65;;;13.80;99.90;;;;;;4981736;28;20045;-67
2022/11/11 15:49:42;;;;;;;;;;;13.80;99.90;;;;;;4963904;28;20045;-66
2022/11/11 15:52:30;;;;;;;3.67;1.63;;;13.80;99.90;;;;;;4959438;28;19933;-67
2022/11/11 15:55:28;;;;;;;8.75;1.92;;;13.80;99.90;;;;;;4962446;28;20062;-66
2022/11/11 15:58:23;;;;;;;8.05;2.05;;;13.80;99.90;;;;;;4959176;28;20061;-66
2022/11/11 16:01:11;;;;;;;7.80;2.83;;;13.80;99.90;;;;;;4960182;28;20053;-73
2022/11/11 16:03:57;;;;;;;7.47;2.05;;;13.80;99.90;;;;;;4961847;28;20037;-66
2022/11/11 16:06:43;;;;;;;5.18;1.85;;;13.90;99.90;;;;;;4960639;28;20449;-66
2022/11/11 16:09:30;;;;;;;6.05;1.67;;;13.80;99.90;;;;;;4954403;28;20508;-66